sensor_id;sensor_type;location;lat;lon;timestamp;pressure;altitude;pressure_sealevel;temperature;humidity
32109;BME280;18624;50.042;8.436;2023-01-30T00:01:05;101115.00;;;0.72;100.00
32109;BME280;18624;50.042;8.436;2023-01-30T00:03:32;101117.00;;;0.75;100.00
32109;BME280;18624;50.042;8.436;2023-01-30T00:05:59;101095.66;;;0.70;100.00
32109;BME280;18624;50.042;8.436;2023-01-30T00:08:25;101119.91;;;0.83;100.00
32109;BME280;18624;50.042;8.436;2023-01-30T00:10:52;101119.56;;;0.84;100.00
32109;BME280;18624;50.042;8.436;2023-01-30T00:13:18;101111.13;;;0.86;100.00
32109;BME280;18624;50.042;8.436;2023-01-30T00:15:46;101097.06;;;0.80;100.00
32109;BME280;18624;50.042;8.436;2023-01-30T00:18:13;101052.69;;;0.49;100.00
32109;BME280;18624;50.042;8.436;2023-01-30T00:20:39;101092.75;;;0.91;100.00
32109;BME280;18624;50.042;8.436;2023-01-30T00:23:06;101095.47;;;0.91;100.00
32109;BME280;18624;50.042;8.436;2023-01-30T00:25:32;101091.19;;;0.90;100.00
32109;BME280;18624;50.042;8.436;2023-01-30T00:27:59;101059.19;;;0.76;100.00
32109;BME280;18624;50.042;8.436;2023-01-30T00:30:28;100793.59;;;-0.89;100.00
32109;BME280;18624;50.042;8.436;2023-01-30T00:32:57;101031.88;;;0.94;100.00
32109;BME280;18624;50.042;8.436;2023-01-30T00:35:24;101029.97;;;0.94;100.00
32109;BME280;18624;50.042;8.436;2023-01-30T00:37:58;101011.00;;;0.91;100.00
32109;BME280;18624;50.042;8.436;2023-01-30T00:40:26;101004.91;;;0.94;100.00
32109;BME280;18624;50.042;8.436;2023-01-30T00:42:53;101034.59;;;0.94;100.00
32109;BME280;18624;50.042;8.436;2023-01-30T00:45:40;101042.34;;;0.95;100.00
32109;BME280;18624;50.042;8.436;2023-01-30T00:48:27;101037.53;;;0.89;100.00
32109;BME280;18624;50.042;8.436;2023-01-30T00:50:53;101019.28;;;0.82;100.00
32109;BME280;18624;50.042;8.436;2023-01-30T00:53:20;101022.13;;;0.89;100.00
32109;BME280;18624;50.042;8.436;2023-01-30T00:55:49;100944.63;;;0.42;100.00
32109;BME280;18624;50.042;8.436;2023-01-30T00:58:16;101009.00;;;0.88;100.00
32109;BME280;18624;50.042;8.436;2023-01-30T01:00:42;101010.03;;;0.83;100.00
32109;BME280;18624;50.042;8.436;2023-01-30T01:03:09;101024.56;;;0.94;100.00
32109;BME280;18624;50.042;8.436;2023-01-30T01:05:35;101003.44;;;0.96;100.00
32109;BME280;18624;50.042;8.436;2023-01-30T01:08:02;101016.94;;;0.96;100.00
32109;BME280;18624;50.042;8.436;2023-01-30T01:10:28;101023.53;;;0.99;100.00
32109;BME280;18624;50.042;8.436;2023-01-30T01:12:55;101019.97;;;0.95;100.00
32109;BME280;18624;50.042;8.436;2023-01-30T01:15:25;101019.16;;;0.94;100.00
32109;BME280;18624;50.042;8.436;2023-01-30T01:17:52;101003.16;;;0.86;100.00
32109;BME280;18624;50.042;8.436;2023-01-30T01:20:19;101014.81;;;0.90;100.00
32109;BME280;18624;50.042;8.436;2023-01-30T01:22:46;101000.13;;;0.87;100.00
32109;BME280;18624;50.042;8.436;2023-01-30T01:25:15;101012.13;;;0.90;100.00
32109;BME280;18624;50.042;8.436;2023-01-30T01:27:42;100993.94;;;0.87;100.00
32109;BME280;18624;50.042;8.436;2023-01-30T01:30:09;100998.97;;;0.88;100.00
32109;BME280;18624;50.042;8.436;2023-01-30T01:32:36;100842.44;;;-0.07;100.00
32109;BME280;18624;50.042;8.436;2023-01-30T01:35:02;101002.91;;;0.91;100.00
32109;BME280;18624;50.042;8.436;2023-01-30T01:37:29;100997.94;;;0.93;100.00
32109;BME280;18624;50.042;8.436;2023-01-30T01:39:55;100980.53;;;0.90;100.00
32109;BME280;18624;50.042;8.436;2023-01-30T01:42:40;100980.69;;;0.97;100.00
32109;BME280;18624;50.042;8.436;2023-01-30T01:45:16;100989.94;;;0.96;100.00
32109;BME280;18624;50.042;8.436;2023-01-30T01:48:03;100986.44;;;0.96;100.00
32109;BME280;18624;50.042;8.436;2023-01-30T01:50:48;100970.94;;;0.93;100.00
32109;BME280;18624;50.042;8.436;2023-01-30T01:53:18;100964.50;;;0.97;100.00
32109;BME280;18624;50.042;8.436;2023-01-30T01:55:48;100947.16;;;0.98;100.00
32109;BME280;18624;50.042;8.436;2023-01-30T01:58:54;100948.03;;;1.02;100.00
32109;BME280;18624;50.042;8.436;2023-01-30T02:01:23;100939.78;;;0.95;100.00
32109;BME280;18624;50.042;8.436;2023-01-30T02:03:55;100875.00;;;0.48;100.00
32109;BME280;18624;50.042;8.436;2023-01-30T02:06:23;100961.44;;;0.99;100.00
32109;BME280;18624;50.042;8.436;2023-01-30T02:08:58;100951.09;;;1.01;100.00
32109;BME280;18624;50.042;8.436;2023-01-30T02:11:37;100933.34;;;1.00;100.00
32109;BME280;18624;50.042;8.436;2023-01-30T02:14:08;100920.25;;;1.02;100.00
32109;BME280;18624;50.042;8.436;2023-01-30T02:16:36;100922.97;;;1.02;100.00
32109;BME280;18624;50.042;8.436;2023-01-30T02:19:23;100899.63;;;0.94;100.00
32109;BME280;18624;50.042;8.436;2023-01-30T02:22:13;100924.97;;;1.05;100.00
32109;BME280;18624;50.042;8.436;2023-01-30T02:30:42;100911.88;;;1.07;100.00
32109;BME280;18624;50.042;8.436;2023-01-30T02:33:28;100909.63;;;1.09;100.00
32109;BME280;18624;50.042;8.436;2023-01-30T02:36:16;100920.16;;;1.14;100.00
32109;BME280;18624;50.042;8.436;2023-01-30T02:44:25;100908.06;;;1.08;100.00
32109;BME280;18624;50.042;8.436;2023-01-30T02:47:06;100902.31;;;1.10;100.00
32109;BME280;18624;50.042;8.436;2023-01-30T02:49:37;100903.78;;;1.07;100.00
32109;BME280;18624;50.042;8.436;2023-01-30T02:52:07;100899.16;;;1.08;100.00
32109;BME280;18624;50.042;8.436;2023-01-30T02:54:35;100907.72;;;1.10;100.00
32109;BME280;18624;50.042;8.436;2023-01-30T02:57:01;100824.63;;;0.52;100.00
32109;BME280;18624;50.042;8.436;2023-01-30T02:59:35;100916.22;;;1.12;100.00
32109;BME280;18624;50.042;8.436;2023-01-30T03:07:58;100918.16;;;1.11;100.00
32109;BME280;18624;50.042;8.436;2023-01-30T03:13:11;100925.56;;;1.14;100.00
32109;BME280;18624;50.042;8.436;2023-01-30T03:15:53;100933.31;;;1.16;100.00
32109;BME280;18624;50.042;8.436;2023-01-30T03:18:22;100815.31;;;0.49;100.00
32109;BME280;18624;50.042;8.436;2023-01-30T03:20:50;100903.47;;;1.09;100.00
32109;BME280;18624;50.042;8.436;2023-01-30T03:23:17;100914.84;;;1.18;100.00
32109;BME280;18624;50.042;8.436;2023-01-30T03:25:44;100902.13;;;1.18;100.00
32109;BME280;18624;50.042;8.436;2023-01-30T03:28:13;100825.94;;;0.74;100.00
32109;BME280;18624;50.042;8.436;2023-01-30T03:30:42;100897.94;;;1.21;100.00
32109;BME280;18624;50.042;8.436;2023-01-30T03:33:09;100899.94;;;1.24;100.00
32109;BME280;18624;50.042;8.436;2023-01-30T03:35:37;100893.31;;;1.21;100.00
32109;BME280;18624;50.042;8.436;2023-01-30T03:38:04;100903.31;;;1.21;100.00
32109;BME280;18624;50.042;8.436;2023-01-30T03:40:30;100879.16;;;1.09;100.00
32109;BME280;18624;50.042;8.436;2023-01-30T03:42:57;100879.22;;;1.12;100.00
32109;BME280;18624;50.042;8.436;2023-01-30T03:45:24;100882.00;;;1.16;100.00
32109;BME280;18624;50.042;8.436;2023-01-30T03:47:51;100879.81;;;1.21;100.00
32109;BME280;18624;50.042;8.436;2023-01-30T03:50:18;100875.53;;;1.20;100.00
32109;BME280;18624;50.042;8.436;2023-01-30T03:52:44;100880.63;;;1.22;100.00
32109;BME280;18624;50.042;8.436;2023-01-30T03:55:15;100887.56;;;1.23;100.00
32109;BME280;18624;50.042;8.436;2023-01-30T03:57:42;100884.88;;;1.23;100.00
32109;BME280;18624;50.042;8.436;2023-01-30T04:00:09;100884.09;;;1.22;100.00
32109;BME280;18624;50.042;8.436;2023-01-30T04:02:42;100806.34;;;0.77;100.00
32109;BME280;18624;50.042;8.436;2023-01-30T04:05:12;100867.88;;;1.22;100.00
32109;BME280;18624;50.042;8.436;2023-01-30T04:07:44;100856.31;;;1.22;100.00
32109;BME280;18624;50.042;8.436;2023-01-30T04:10:11;100851.69;;;1.22;100.00
32109;BME280;18624;50.042;8.436;2023-01-30T04:12:41;100852.09;;;1.24;100.00
32109;BME280;18624;50.042;8.436;2023-01-30T04:15:09;100839.66;;;1.20;100.00
32109;BME280;18624;50.042;8.436;2023-01-30T04:18:04;100819.19;;;1.19;100.00
32109;BME280;18624;50.042;8.436;2023-01-30T04:20:46;100809.00;;;1.12;100.00
32109;BME280;18624;50.042;8.436;2023-01-30T04:23:14;100790.06;;;1.09;100.00
32109;BME280;18624;50.042;8.436;2023-01-30T04:25:44;100787.41;;;1.12;100.00
32109;BME280;18624;50.042;8.436;2023-01-30T04:28:13;100789.41;;;1.15;100.00
32109;BME280;18624;50.042;8.436;2023-01-30T04:30:40;100794.91;;;1.19;100.00
32109;BME280;18624;50.042;8.436;2023-01-30T04:33:31;100788.22;;;1.13;100.00
32109;BME280;18624;50.042;8.436;2023-01-30T04:36:03;100798.75;;;1.18;100.00
32109;BME280;18624;50.042;8.436;2023-01-30T04:38:30;100781.47;;;1.22;100.00
32109;BME280;18624;50.042;8.436;2023-01-30T04:40:58;100780.41;;;1.27;100.00
32109;BME280;18624;50.042;8.436;2023-01-30T04:43:28;100760.78;;;1.30;100.00
32109;BME280;18624;50.042;8.436;2023-01-30T04:46:13;100763.47;;;1.30;100.00
32109;BME280;18624;50.042;8.436;2023-01-30T04:48:41;100770.47;;;1.31;100.00
32109;BME280;18624;50.042;8.436;2023-01-30T04:51:08;100769.31;;;1.32;100.00
32109;BME280;18624;50.042;8.436;2023-01-30T04:53:36;100773.94;;;1.32;100.00
32109;BME280;18624;50.042;8.436;2023-01-30T04:56:03;100716.25;;;1.01;100.00
32109;BME280;18624;50.042;8.436;2023-01-30T04:58:29;100758.16;;;1.34;100.00
32109;BME280;18624;50.042;8.436;2023-01-30T05:03:57;100757.53;;;1.40;100.00
32109;BME280;18624;50.042;8.436;2023-01-30T05:06:24;100754.81;;;1.40;100.00
32109;BME280;18624;50.042;8.436;2023-01-30T05:08:53;100762.94;;;1.40;100.00
32109;BME280;18624;50.042;8.436;2023-01-30T05:11:20;100769.81;;;1.38;100.00
32109;BME280;18624;50.042;8.436;2023-01-30T05:13:48;100765.97;;;1.39;100.00
32109;BME280;18624;50.042;8.436;2023-01-30T05:16:15;100659.78;;;0.73;100.00
32109;BME280;18624;50.042;8.436;2023-01-30T05:18:42;100746.09;;;1.27;100.00
32109;BME280;18624;50.042;8.436;2023-01-30T05:21:17;100746.28;;;1.38;100.00
32109;BME280;18624;50.042;8.436;2023-01-30T05:23:44;100746.72;;;1.40;100.00
32109;BME280;18624;50.042;8.436;2023-01-30T05:26:12;100730.06;;;1.38;100.00
32109;BME280;18624;50.042;8.436;2023-01-30T05:28:39;100752.97;;;1.44;100.00
32109;BME280;18624;50.042;8.436;2023-01-30T05:31:08;100742.88;;;1.41;100.00
32109;BME280;18624;50.042;8.436;2023-01-30T05:33:36;100744.88;;;1.44;100.00
32109;BME280;18624;50.042;8.436;2023-01-30T05:36:03;100737.53;;;1.45;100.00
32109;BME280;18624;50.042;8.436;2023-01-30T05:38:30;100737.53;;;1.45;100.00
32109;BME280;18624;50.042;8.436;2023-01-30T05:41:01;100723.66;;;1.46;100.00
32109;BME280;18624;50.042;8.436;2023-01-30T05:43:28;100718.34;;;1.50;100.00
32109;BME280;18624;50.042;8.436;2023-01-30T05:45:56;100735.72;;;1.52;100.00
32109;BME280;18624;50.042;8.436;2023-01-30T05:48:24;100719.25;;;1.58;100.00
32109;BME280;18624;50.042;8.436;2023-01-30T05:50:51;100714.56;;;1.55;100.00
32109;BME280;18624;50.042;8.436;2023-01-30T05:53:19;100704.59;;;1.59;100.00
32109;BME280;18624;50.042;8.436;2023-01-30T05:55:53;100711.19;;;1.61;100.00
32109;BME280;18624;50.042;8.436;2023-01-30T05:58:22;100705.38;;;1.59;100.00
32109;BME280;18624;50.042;8.436;2023-01-30T06:00:48;100710.78;;;1.59;100.00
32109;BME280;18624;50.042;8.436;2023-01-30T06:03:15;100699.72;;;1.45;100.00
32109;BME280;18624;50.042;8.436;2023-01-30T06:05:42;100717.66;;;1.57;100.00
32109;BME280;18624;50.042;8.436;2023-01-30T06:08:08;100722.28;;;1.56;100.00
32109;BME280;18624;50.042;8.436;2023-01-30T06:10:35;100720.81;;;1.59;100.00
32109;BME280;18624;50.042;8.436;2023-01-30T06:13:01;100723.84;;;1.57;100.00
32109;BME280;18624;50.042;8.436;2023-01-30T06:15:28;100719.25;;;1.58;100.00
32109;BME280;18624;50.042;8.436;2023-01-30T06:17:55;100712.28;;;1.57;100.00
32109;BME280;18624;50.042;8.436;2023-01-30T06:20:21;100715.75;;;1.57;100.00
32109;BME280;18624;50.042;8.436;2023-01-30T06:22:48;100705.84;;;1.65;100.00
32109;BME280;18624;50.042;8.436;2023-01-30T06:25:14;100705.84;;;1.65;100.00
32109;BME280;18624;50.042;8.436;2023-01-30T06:27:41;100703.94;;;1.65;100.00
32109;BME280;18624;50.042;8.436;2023-01-30T06:30:08;100710.97;;;1.70;100.00
32109;BME280;18624;50.042;8.436;2023-01-30T06:32:35;100710.56;;;1.68;100.00
32109;BME280;18624;50.042;8.436;2023-01-30T06:35:02;100714.03;;;1.68;100.00
32109;BME280;18624;50.042;8.436;2023-01-30T06:37:29;100714.81;;;1.69;100.00
32109;BME280;18624;50.042;8.436;2023-01-30T06:39:55;100705.22;;;1.71;100.00
32109;BME280;18624;50.042;8.436;2023-01-30T06:42:22;100709.81;;;1.71;100.00
32109;BME280;18624;50.042;8.436;2023-01-30T06:44:48;100703.69;;;1.74;100.00
32109;BME280;18624;50.042;8.436;2023-01-30T06:47:14;100696.66;;;1.69;100.00
32109;BME280;18624;50.042;8.436;2023-01-30T06:49:41;100704.38;;;1.67;100.00
32109;BME280;18624;50.042;8.436;2023-01-30T06:52:07;100721.78;;;1.70;100.00
32109;BME280;18624;50.042;8.436;2023-01-30T06:54:34;100713.66;;;1.70;100.00
32109;BME280;18624;50.042;8.436;2023-01-30T06:57:01;100727.63;;;1.72;100.00
32109;BME280;18624;50.042;8.436;2023-01-30T06:59:27;100735.75;;;1.75;100.00
32109;BME280;18624;50.042;8.436;2023-01-30T07:01:53;100731.09;;;1.72;100.00
32109;BME280;18624;50.042;8.436;2023-01-30T07:04:20;100725.75;;;1.76;100.00
32109;BME280;18624;50.042;8.436;2023-01-30T07:06:46;100729.22;;;1.76;100.00
32109;BME280;18624;50.042;8.436;2023-01-30T07:09:13;100734.97;;;1.75;100.00
32109;BME280;18624;50.042;8.436;2023-01-30T07:11:39;100746.22;;;1.77;100.00
32109;BME280;18624;50.042;8.436;2023-01-30T07:14:06;100738.13;;;1.77;100.00
32109;BME280;18624;50.042;8.436;2023-01-30T07:16:32;100734.28;;;1.78;100.00
32109;BME280;18624;50.042;8.436;2023-01-30T07:18:59;100757.81;;;1.77;100.00
32109;BME280;18624;50.042;8.436;2023-01-30T07:21:25;100759.66;;;1.73;100.00
32109;BME280;18624;50.042;8.436;2023-01-30T07:23:52;100760.03;;;1.72;100.00
32109;BME280;18624;50.042;8.436;2023-01-30T07:26:19;100728.31;;;1.69;100.00
32109;BME280;18624;50.042;8.436;2023-01-30T07:28:45;100738.81;;;1.74;100.00
32109;BME280;18624;50.042;8.436;2023-01-30T07:31:12;100740.75;;;1.73;100.00
32109;BME280;18624;50.042;8.436;2023-01-30T07:33:38;100712.78;;;1.62;100.00
32109;BME280;18624;50.042;8.436;2023-01-30T07:36:07;100728.47;;;1.76;100.00
32109;BME280;18624;50.042;8.436;2023-01-30T07:38:35;100675.41;;;1.45;100.00
32109;BME280;18624;50.042;8.436;2023-01-30T07:41:02;100729.28;;;1.80;100.00
32109;BME280;18624;50.042;8.436;2023-01-30T07:43:28;100740.44;;;1.78;100.00
32109;BME280;18624;50.042;8.436;2023-01-30T07:45:54;100744.38;;;1.81;100.00
32109;BME280;18624;50.042;8.436;2023-01-30T07:48:21;100740.59;;;1.86;100.00
32109;BME280;18624;50.042;8.436;2023-01-30T07:50:47;100737.03;;;1.82;100.00
32109;BME280;18624;50.042;8.436;2023-01-30T07:53:15;100736.56;;;1.76;100.00
32109;BME280;18624;50.042;8.436;2023-01-30T07:55:43;100745.09;;;1.78;100.00
32109;BME280;18624;50.042;8.436;2023-01-30T07:58:12;100738.97;;;1.81;100.00
32109;BME280;18624;50.042;8.436;2023-01-30T08:00:39;100723.06;;;1.76;100.00
32109;BME280;18624;50.042;8.436;2023-01-30T08:03:10;100746.94;;;1.74;100.00
32109;BME280;18624;50.042;8.436;2023-01-30T08:05:37;100753.59;;;1.80;100.00
32109;BME280;18624;50.042;8.436;2023-01-30T08:08:03;100743.53;;;1.77;100.00
32109;BME280;18624;50.042;8.436;2023-01-30T08:10:30;100728.09;;;1.77;100.00
32109;BME280;18624;50.042;8.436;2023-01-30T08:12:56;100714.63;;;1.81;100.00
32109;BME280;18624;50.042;8.436;2023-01-30T08:15:23;100724.78;;;1.88;100.00
32109;BME280;18624;50.042;8.436;2023-01-30T08:17:54;100729.03;;;1.89;100.00
32109;BME280;18624;50.042;8.436;2023-01-30T08:20:21;100670.50;;;1.50;100.00
32109;BME280;18624;50.042;8.436;2023-01-30T08:22:48;100712.66;;;1.78;100.00
32109;BME280;18624;50.042;8.436;2023-01-30T08:25:14;100713.50;;;1.82;100.00
32109;BME280;18624;50.042;8.436;2023-01-30T08:27:41;100703.31;;;1.75;100.00
32109;BME280;18624;50.042;8.436;2023-01-30T08:30:09;100708.88;;;1.83;100.00
32109;BME280;18624;50.042;8.436;2023-01-30T08:32:35;100723.94;;;1.84;100.00
32109;BME280;18624;50.042;8.436;2023-01-30T08:35:02;100736.38;;;1.88;100.00
32109;BME280;18624;50.042;8.436;2023-01-30T08:37:29;100728.63;;;1.87;100.00
32109;BME280;18624;50.042;8.436;2023-01-30T08:39:57;100729.03;;;1.89;100.00
32109;BME280;18624;50.042;8.436;2023-01-30T08:42:23;100736.03;;;1.90;100.00
32109;BME280;18624;50.042;8.436;2023-01-30T08:44:50;100737.22;;;1.92;100.00
32109;BME280;18624;50.042;8.436;2023-01-30T08:47:16;100737.66;;;1.94;100.00
32109;BME280;18624;50.042;8.436;2023-01-30T08:49:43;100719.56;;;1.98;100.00
32109;BME280;18624;50.042;8.436;2023-01-30T08:52:09;100712.56;;;1.97;100.00
32109;BME280;18624;50.042;8.436;2023-01-30T08:54:35;100702.19;;;1.99;100.00
32109;BME280;18624;50.042;8.436;2023-01-30T08:57:02;100712.31;;;2.06;100.00
32109;BME280;18624;50.042;8.436;2023-01-30T08:59:28;100699.59;;;2.07;100.00
32109;BME280;18624;50.042;8.436;2023-01-30T09:01:55;100707.34;;;2.08;100.00
32109;BME280;18624;50.042;8.436;2023-01-30T09:04:21;100698.09;;;2.09;100.00
32109;BME280;18624;50.042;8.436;2023-01-30T09:06:50;100698.16;;;2.13;100.00
32109;BME280;18624;50.042;8.436;2023-01-30T09:09:16;100689.59;;;2.11;100.00
32109;BME280;18624;50.042;8.436;2023-01-30T09:11:43;100679.16;;;2.09;100.00
32109;BME280;18624;50.042;8.436;2023-01-30T09:14:09;100689.72;;;2.18;100.00
32109;BME280;18624;50.042;8.436;2023-01-30T09:16:36;100702.47;;;2.17;100.00
32109;BME280;18624;50.042;8.436;2023-01-30T09:19:02;100687.44;;;2.20;100.00
32109;BME280;18624;50.042;8.436;2023-01-30T09:21:29;100684.00;;;2.23;100.00
32109;BME280;18624;50.042;8.436;2023-01-30T09:23:57;100676.22;;;2.18;100.00
32109;BME280;18624;50.042;8.436;2023-01-30T09:26:23;100690.63;;;2.25;100.00
32109;BME280;18624;50.042;8.436;2023-01-30T09:28:50;100619.53;;;1.75;100.00
32109;BME280;18624;50.042;8.436;2023-01-30T09:31:16;100692.63;;;2.32;100.00
32109;BME280;18624;50.042;8.436;2023-01-30T09:33:43;100687.22;;;2.32;100.00
32109;BME280;18624;50.042;8.436;2023-01-30T09:36:09;100683.03;;;2.35;100.00
32109;BME280;18624;50.042;8.436;2023-01-30T09:38:36;100666.31;;;2.29;100.00
32109;BME280;18624;50.042;8.436;2023-01-30T09:41:42;100678.06;;;2.40;100.00
32109;BME280;18624;50.042;8.436;2023-01-30T09:53:15;100717.66;;;2.52;100.00
32109;BME280;18624;50.042;8.436;2023-01-30T09:55:44;100703.00;;;2.53;100.00
32109;BME280;18624;50.042;8.436;2023-01-30T09:58:22;100699.53;;;2.56;100.00
32109;BME280;18624;50.042;8.436;2023-01-30T10:00:53;100695.72;;;2.61;100.00
32109;BME280;18624;50.042;8.436;2023-01-30T10:03:33;100682.69;;;2.66;100.00
32109;BME280;18624;50.042;8.436;2023-01-30T10:06:12;100677.66;;;2.68;100.00
32109;BME280;18624;50.042;8.436;2023-01-30T10:25:33;100652.53;;;3.01;100.00
32109;BME280;18624;50.042;8.436;2023-01-30T10:28:24;100639.47;;;3.11;100.00
32109;BME280;18624;50.042;8.436;2023-01-30T10:30:59;100642.59;;;3.13;100.00
32109;BME280;18624;50.042;8.436;2023-01-30T10:33:36;100649.28;;;3.22;100.00
32109;BME280;18624;50.042;8.436;2023-01-30T10:36:13;100622.53;;;3.17;100.00
32109;BME280;18624;50.042;8.436;2023-01-30T10:38:46;100636.66;;;3.37;100.00
32109;BME280;18624;50.042;8.436;2023-01-30T10:44:00;100629.13;;;3.64;100.00
32109;BME280;18624;50.042;8.436;2023-01-30T10:49:34;100630.75;;;3.72;100.00
32109;BME280;18624;50.042;8.436;2023-01-30T10:52:18;100650.56;;;3.76;100.00
32109;BME280;18624;50.042;8.436;2023-01-30T10:57:52;100654.88;;;3.85;100.00
32109;BME280;18624;50.042;8.436;2023-01-30T11:00:29;100643.28;;;3.88;100.00
32109;BME280;18624;50.042;8.436;2023-01-30T11:03:14;100636.31;;;3.90;100.00
32109;BME280;18624;50.042;8.436;2023-01-30T11:05:51;100631.31;;;3.92;100.00
32109;BME280;18624;50.042;8.436;2023-01-30T11:08:22;100629.03;;;3.98;100.00
32109;BME280;18624;50.042;8.436;2023-01-30T11:10:50;100539.56;;;3.46;100.00
32109;BME280;18624;50.042;8.436;2023-01-30T11:13:28;100614.69;;;3.97;100.00
32109;BME280;18624;50.042;8.436;2023-01-30T11:16:03;100626.72;;;4.03;100.00
32109;BME280;18624;50.042;8.436;2023-01-30T11:18:30;100571.09;;;3.69;100.00
32109;BME280;18624;50.042;8.436;2023-01-30T11:21:27;100641.88;;;4.08;100.00
32109;BME280;18624;50.042;8.436;2023-01-30T11:24:15;100639.19;;;4.12;100.00
32109;BME280;18624;50.042;8.436;2023-01-30T11:26:43;100638.44;;;4.18;100.00
32109;BME280;18624;50.042;8.436;2023-01-30T11:29:32;100629.19;;;4.26;100.00
32109;BME280;18624;50.042;8.436;2023-01-30T11:32:02;100636.59;;;4.33;100.00
32109;BME280;18624;50.042;8.436;2023-01-30T11:34:29;100634.69;;;4.41;100.00
32109;BME280;18624;50.042;8.436;2023-01-30T11:37:26;100637.47;;;4.51;100.00
32109;BME280;18624;50.042;8.436;2023-01-30T11:39:55;100634.75;;;4.51;100.00
32109;BME280;18624;50.042;8.436;2023-01-30T11:42:30;100657.66;;;4.57;100.00
32109;BME280;18624;50.042;8.436;2023-01-30T11:44:58;100662.34;;;4.68;100.00
32109;BME280;18624;50.042;8.436;2023-01-30T11:48:04;100646.09;;;4.75;100.00
32109;BME280;18624;50.042;8.436;2023-01-30T11:50:41;100527.13;;;3.97;100.00
32109;BME280;18624;50.042;8.436;2023-01-30T11:53:36;100672.53;;;4.85;100.00
32109;BME280;18624;50.042;8.436;2023-01-30T11:58:38;100670.19;;;4.80;100.00
32109;BME280;18624;50.042;8.436;2023-01-30T12:01:08;100667.84;;;4.78;100.00
32109;BME280;18624;50.042;8.436;2023-01-30T12:03:43;100655.44;;;4.81;100.00
32109;BME280;18624;50.042;8.436;2023-01-30T12:06:11;100632.50;;;4.71;100.00
32109;BME280;18624;50.042;8.436;2023-01-30T12:08:39;100632.56;;;4.86;100.00
32109;BME280;18624;50.042;8.436;2023-01-30T12:14:34;100638.03;;;4.93;100.00
32109;BME280;18624;50.042;8.436;2023-01-30T12:17:20;100631.81;;;4.89;100.00
32109;BME280;18624;50.042;8.436;2023-01-30T12:22:45;100491.16;;;4.11;100.00
32109;BME280;18624;50.042;8.436;2023-01-30T12:25:19;100607.38;;;4.92;100.00
32109;BME280;18624;50.042;8.436;2023-01-30T12:27:55;100598.81;;;4.90;100.00
32109;BME280;18624;50.042;8.436;2023-01-30T12:33:05;100591.44;;;4.91;100.00
32109;BME280;18624;50.042;8.436;2023-01-30T12:35:52;100619.41;;;4.91;100.00
32109;BME280;18624;50.042;8.436;2023-01-30T12:39:03;100592.25;;;4.91;100.00
32109;BME280;18624;50.042;8.436;2023-01-30T12:44:35;100602.69;;;4.89;100.00
32109;BME280;18624;50.042;8.436;2023-01-30T12:50:28;100598.44;;;4.92;100.00
32109;BME280;18624;50.042;8.436;2023-01-30T12:53:38;100600.38;;;4.95;100.00
32109;BME280;18624;50.042;8.436;2023-01-30T13:01:52;100625.63;;;4.99;100.00
32109;BME280;18624;50.042;8.436;2023-01-30T13:04:56;100628.34;;;4.99;100.00
32109;BME280;18624;50.042;8.436;2023-01-30T13:07:41;100626.00;;;4.97;100.00
32109;BME280;18624;50.042;8.436;2023-01-30T13:15:31;100624.06;;;4.94;100.00
32109;BME280;18624;50.042;8.436;2023-01-30T13:18:08;100626.38;;;4.92;100.00
32109;BME280;18624;50.042;8.436;2023-01-30T13:20:51;100625.22;;;4.93;100.00
32109;BME280;18624;50.042;8.436;2023-01-30T13:28:36;100635.72;;;4.98;100.00
32109;BME280;18624;50.042;8.436;2023-01-30T13:31:05;100600.72;;;4.75;100.00
32109;BME280;18624;50.042;8.436;2023-01-30T13:33:37;100614.72;;;4.95;100.00
32109;BME280;18624;50.042;8.436;2023-01-30T13:36:12;100598.41;;;4.77;100.00
32109;BME280;18624;50.042;8.436;2023-01-30T13:38:49;100643.13;;;5.05;100.00
32109;BME280;18624;50.042;8.436;2023-01-30T13:41:18;100641.56;;;5.07;100.00
32109;BME280;18624;50.042;8.436;2023-01-30T13:43:51;100615.50;;;4.89;100.00
32109;BME280;18624;50.042;8.436;2023-01-30T13:46:24;100646.22;;;5.11;100.00
32109;BME280;18624;50.042;8.436;2023-01-30T13:49:08;100646.25;;;5.14;100.00
32109;BME280;18624;50.042;8.436;2023-01-30T14:02:20;100656.72;;;5.16;100.00
32109;BME280;18624;50.042;8.436;2023-01-30T14:04:54;100653.22;;;5.15;100.00
32109;BME280;18624;50.042;8.436;2023-01-30T14:07:27;100644.66;;;5.06;100.00
32109;BME280;18624;50.042;8.436;2023-01-30T14:18:05;100658.25;;;5.06;100.00
32109;BME280;18624;50.042;8.436;2023-01-30T14:20:39;100683.09;;;5.08;100.00
32109;BME280;18624;50.042;8.436;2023-01-30T14:23:33;100689.69;;;5.07;100.00
32109;BME280;18624;50.042;8.436;2023-01-30T14:26:01;100692.38;;;5.03;100.00
32109;BME280;18624;50.042;8.436;2023-01-30T14:30:58;100697.03;;;5.03;100.00
32109;BME280;18624;50.042;8.436;2023-01-30T14:38:33;100699.75;;;4.96;100.00
32109;BME280;18624;50.042;8.436;2023-01-30T14:46:11;100709.00;;;4.84;100.00
32109;BME280;18624;50.042;8.436;2023-01-30T14:49:09;100715.59;;;4.83;100.00
32109;BME280;18624;50.042;8.436;2023-01-30T14:51:43;100732.66;;;4.83;100.00
32109;BME280;18624;50.042;8.436;2023-01-30T14:59:33;100729.88;;;4.69;100.00
32109;BME280;18624;50.042;8.436;2023-01-30T15:02:28;100766.47;;;4.93;100.00
32109;BME280;18624;50.042;8.436;2023-01-30T15:07:48;100765.66;;;4.89;100.00
32109;BME280;18624;50.042;8.436;2023-01-30T15:13:33;100780.41;;;4.88;100.00
32109;BME280;18624;50.042;8.436;2023-01-30T15:16:22;100777.28;;;4.86;100.00
32109;BME280;18624;50.042;8.436;2023-01-30T15:21:54;100790.09;;;4.86;100.00
32109;BME280;18624;50.042;8.436;2023-01-30T15:27:21;100793.59;;;4.86;100.00
32109;BME280;18624;50.042;8.436;2023-01-30T15:32:39;100802.50;;;4.83;100.00
32109;BME280;18624;50.042;8.436;2023-01-30T15:45:59;100804.78;;;4.74;100.00